createdAt,value
2023-02-11T00:04:10.214Z,1.50
2023-02-11T00:09:32.479Z,1.40
2023-02-11T00:14:54.186Z,1.40
2023-02-11T00:20:16.126Z,1.30
2023-02-11T00:25:45.670Z,1.00
2023-02-11T00:31:07.634Z,1.13
2023-02-11T00:36:30.258Z,1.10
2023-02-11T00:41:52.206Z,1.10
2023-02-11T00:47:14.062Z,1.08
2023-02-11T00:52:35.899Z,0.90
2023-02-11T00:57:59.010Z,1.40
2023-02-11T01:03:20.919Z,1.20
2023-02-11T01:08:42.632Z,1.00
2023-02-11T01:14:04.359Z,0.95
2023-02-11T01:19:26.103Z,0.90
2023-02-11T01:24:47.885Z,0.80
2023-02-11T01:30:12.227Z,0.70
2023-02-11T01:35:34.027Z,0.82
2023-02-11T01:41:02.014Z,0.80
2023-02-11T01:46:29.763Z,0.82
2023-02-11T01:51:55.221Z,0.88
2023-02-11T01:57:23.503Z,0.75
2023-02-11T02:02:51.092Z,0.70
2023-02-11T02:08:19.034Z,0.52
2023-02-11T02:13:40.819Z,0.47
2023-02-11T02:19:17.698Z,0.47
2023-02-11T02:25:16.936Z,1.02
2023-02-11T02:30:46.946Z,0.80
2023-02-11T02:36:23.768Z,0.50
2023-02-11T02:41:47.584Z,0.60
2023-02-11T02:47:09.272Z,0.70
2023-02-11T02:52:44.254Z,0.60
2023-02-11T02:58:22.699Z,0.55
2023-02-11T03:03:47.214Z,0.60
2023-02-11T03:09:27.777Z,0.60
2023-02-11T03:14:52.392Z,0.50
2023-02-11T03:20:17.623Z,0.50
2023-02-11T03:25:46.014Z,0.50
2023-02-11T03:31:44.652Z,0.50
2023-02-11T03:37:13.248Z,0.50
2023-02-11T03:42:41.007Z,0.38
2023-02-11T03:48:08.082Z,0.50
2023-02-11T03:53:29.782Z,0.32
2023-02-11T03:58:51.526Z,0.50
2023-02-11T04:04:13.293Z,0.60
2023-02-11T04:09:36.438Z,0.70
2023-02-11T04:14:58.357Z,0.60
2023-02-11T04:20:20.366Z,0.50
2023-02-11T04:25:43.033Z,0.63
2023-02-11T04:31:04.952Z,0.50
2023-02-11T04:36:27.028Z,0.40
2023-02-11T04:41:49.167Z,0.30
2023-02-11T04:47:12.861Z,0.60
2023-02-11T04:52:34.911Z,0.45
2023-02-11T04:57:56.709Z,0.30
2023-02-11T05:03:18.698Z,0.50
2023-02-11T05:08:40.691Z,0.40
2023-02-11T05:14:02.489Z,0.28
2023-02-11T05:19:24.177Z,0.25
2023-02-11T05:24:45.898Z,0.40
2023-02-11T05:30:09.035Z,0.38
2023-02-11T05:35:30.780Z,0.45
2023-02-11T05:40:52.478Z,0.40
2023-02-11T05:46:14.309Z,0.30
2023-02-11T05:51:36.160Z,0.30
2023-02-11T05:56:57.909Z,0.50
2023-02-11T06:02:19.779Z,0.22
2023-02-11T06:07:41.804Z,0.30
2023-02-11T06:13:04.281Z,0.50
2023-02-11T06:18:26.220Z,0.30
2023-02-11T06:23:48.144Z,0.47
2023-02-11T06:29:10.312Z,0.50
2023-02-11T06:34:32.034Z,0.40
2023-02-11T06:39:53.737Z,0.40
2023-02-11T06:45:15.630Z,0.43
2023-02-11T06:50:37.350Z,0.43
2023-02-11T06:56:06.378Z,0.50
2023-02-11T07:01:28.986Z,0.40
2023-02-11T07:06:50.737Z,0.50
2023-02-11T07:12:12.481Z,0.30
2023-02-11T07:17:35.905Z,0.40
2023-02-11T07:22:57.952Z,0.38
2023-02-11T07:28:19.767Z,0.50
2023-02-11T07:33:42.330Z,0.30
2023-02-11T07:39:04.305Z,0.40
2023-02-11T07:44:26.170Z,0.50
2023-02-11T07:49:47.879Z,0.47
2023-02-11T07:55:10.312Z,0.50
2023-02-11T08:00:32.068Z,0.50
2023-02-11T08:05:53.755Z,1.60
2023-02-11T08:11:22.031Z,1.40
2023-02-11T08:16:43.785Z,1.50
2023-02-11T08:22:05.685Z,2.63
2023-02-11T08:27:27.525Z,4.82
2023-02-11T08:32:49.248Z,5.13
2023-02-11T08:38:10.945Z,4.75
2023-02-11T08:43:33.545Z,4.95
2023-02-11T08:48:55.324Z,5.70
2023-02-11T08:54:17.558Z,6.07
2023-02-11T08:59:40.220Z,4.70
2023-02-11T09:05:01.928Z,4.28
2023-02-11T09:10:23.664Z,3.80
2023-02-11T09:15:46.982Z,3.72
2023-02-11T09:21:10.167Z,3.30
2023-02-11T09:26:33.972Z,3.08
2023-02-11T09:31:55.862Z,2.88
2023-02-11T09:37:17.632Z,3.45
2023-02-11T09:43:02.333Z,3.70
2023-02-11T09:48:25.976Z,4.22
2023-02-11T09:53:54.599Z,3.80
2023-02-11T09:59:17.791Z,3.30
2023-02-11T10:05:07.191Z,3.45
2023-02-11T10:10:50.446Z,3.17
2023-02-11T10:16:18.460Z,3.83
2023-02-11T10:22:04.720Z,4.10
2023-02-11T10:27:35.605Z,3.83
2023-02-11T10:33:06.747Z,4.20
2023-02-11T10:38:28.492Z,4.65
2023-02-11T10:43:51.052Z,5.20
2023-02-11T10:49:38.966Z,4.40
2023-02-11T10:55:17.361Z,4.00
2023-02-11T11:00:41.123Z,3.60
2023-02-11T11:06:05.765Z,3.50
2023-02-11T11:11:27.607Z,2.83
2023-02-11T11:16:56.430Z,3.85
2023-02-11T11:22:24.364Z,3.33
2023-02-11T11:27:50.763Z,2.80
2023-02-11T11:33:25.076Z,3.10
2023-02-11T11:39:00.733Z,2.78
2023-02-11T11:44:29.922Z,2.83
2023-02-11T11:50:39.720Z,2.95
2023-02-11T11:56:23.181Z,3.28
2023-02-11T12:01:59.253Z,3.10
2023-02-11T12:07:21.128Z,3.70
2023-02-11T12:13:17.214Z,3.67
2023-02-11T12:18:49.969Z,4.65
2023-02-11T12:24:39.125Z,4.22
2023-02-11T12:30:28.704Z,4.32
2023-02-11T12:35:59.438Z,4.38
2023-02-11T12:41:51.707Z,4.03
2023-02-11T12:47:39.275Z,3.95
2023-02-11T12:53:30.185Z,4.00
2023-02-11T12:58:56.241Z,3.88
2023-02-11T13:04:38.677Z,3.55
2023-02-11T13:10:09.430Z,3.17
2023-02-11T13:15:31.557Z,3.13
2023-02-11T13:21:09.513Z,3.00
2023-02-11T13:26:54.265Z,2.75
2023-02-11T13:32:16.430Z,3.00
2023-02-11T13:37:39.912Z,2.78
2023-02-11T13:43:04.673Z,3.08
2023-02-11T13:48:38.739Z,3.00
2023-02-11T13:54:01.212Z,3.05
2023-02-11T13:59:25.942Z,2.92
2023-02-11T14:05:24.823Z,2.77
2023-02-11T14:10:52.557Z,2.92
2023-02-11T14:16:22.601Z,2.90
2023-02-11T14:21:46.796Z,3.33
2023-02-11T14:27:21.592Z,3.42
2023-02-11T14:32:55.201Z,3.05
2023-02-11T14:38:39.797Z,3.13
2023-02-11T14:44:06.555Z,3.47
2023-02-11T14:49:35.913Z,3.55
2023-02-11T14:55:23.818Z,3.03
2023-02-11T15:00:56.295Z,3.58
2023-02-11T15:06:28.179Z,2.72
2023-02-11T15:11:52.479Z,3.13
2023-02-11T15:17:19.215Z,3.13
2023-02-11T15:22:40.981Z,3.00
2023-02-11T15:28:21.613Z,4.07
2023-02-11T15:33:43.918Z,4.28
2023-02-11T15:39:31.709Z,3.78
2023-02-11T15:45:11.962Z,3.58
2023-02-11T15:50:41.009Z,4.18
2023-02-11T15:56:19.626Z,3.90
2023-02-11T16:01:42.490Z,4.18
2023-02-11T16:07:05.330Z,4.25
2023-02-11T16:12:27.393Z,4.10
2023-02-11T16:17:49.244Z,3.97
2023-02-11T16:23:21.979Z,3.55
2023-02-11T16:28:43.762Z,3.72
2023-02-11T16:34:21.221Z,3.60
2023-02-11T16:39:43.111Z,3.30
2023-02-11T16:45:05.195Z,3.97
2023-02-11T16:50:26.875Z,3.90
2023-02-11T16:55:49.328Z,3.58
2023-02-11T17:01:13.923Z,3.22
2023-02-11T17:06:35.968Z,4.15
2023-02-11T17:11:57.885Z,4.10
2023-02-11T17:17:19.675Z,4.72
2023-02-11T17:22:41.787Z,4.00
2023-02-11T17:28:07.862Z,3.90
2023-02-11T17:33:29.641Z,3.50
2023-02-11T17:38:51.999Z,3.70
2023-02-11T17:44:15.614Z,3.63
2023-02-11T17:49:37.532Z,3.63
2023-02-11T17:54:59.246Z,3.20
2023-02-11T18:00:21.576Z,3.33
2023-02-11T18:05:43.881Z,3.50
2023-02-11T18:11:10.326Z,2.55
2023-02-11T18:16:34.519Z,3.03
2023-02-11T18:21:58.617Z,3.78
2023-02-11T18:27:22.900Z,4.10
2023-02-11T18:32:45.031Z,2.72
2023-02-11T18:38:06.944Z,2.85
2023-02-11T18:43:33.801Z,3.08
2023-02-11T18:48:56.412Z,3.10
2023-02-11T18:54:18.234Z,3.00
2023-02-11T18:59:39.908Z,2.80
2023-02-11T19:05:01.820Z,3.00
2023-02-11T19:10:23.942Z,2.95
2023-02-11T19:15:46.783Z,3.58
2023-02-11T19:21:10.383Z,4.53
2023-02-11T19:26:32.123Z,4.28
2023-02-11T19:31:54.431Z,3.13
2023-02-11T19:37:16.260Z,3.72
2023-02-11T19:42:38.918Z,4.25
2023-02-11T19:48:00.673Z,3.80
2023-02-11T19:53:23.220Z,3.63
2023-02-11T19:58:44.954Z,3.20
2023-02-11T20:04:07.088Z,3.15
2023-02-11T20:09:31.178Z,2.88
2023-02-11T20:14:52.924Z,3.05
2023-02-11T20:20:14.739Z,3.17
2023-02-11T20:25:40.419Z,2.45
2023-02-11T20:31:02.723Z,2.58
2023-02-11T20:36:27.646Z,3.22
2023-02-11T20:41:50.424Z,2.33
2023-02-11T20:47:12.501Z,2.97
2023-02-11T20:52:34.436Z,2.55
2023-02-11T20:57:56.216Z,2.60
2023-02-11T21:03:17.994Z,2.85
2023-02-11T21:08:39.737Z,2.60
2023-02-11T21:14:02.268Z,2.38
2023-02-11T21:19:24.064Z,2.45
2023-02-11T21:24:45.809Z,1.98
2023-02-11T21:30:08.111Z,2.95
2023-02-11T21:35:32.436Z,2.35
2023-02-11T21:40:54.551Z,2.88
2023-02-11T21:46:18.147Z,2.25
2023-02-11T21:51:39.899Z,2.75
2023-02-11T21:57:03.279Z,3.05
2023-02-11T22:02:25.224Z,3.20
2023-02-11T22:07:47.870Z,2.75
2023-02-11T22:13:09.613Z,3.10
2023-02-11T22:18:31.617Z,2.78
2023-02-11T22:23:54.870Z,3.17
2023-02-11T22:29:16.648Z,2.70
2023-02-11T22:34:38.925Z,3.08
2023-02-11T22:40:00.584Z,3.20
2023-02-11T22:45:22.238Z,2.95
2023-02-11T22:50:43.939Z,2.78
2023-02-11T22:56:08.069Z,2.75
2023-02-11T23:01:31.589Z,2.70
2023-02-11T23:06:53.370Z,2.72
2023-02-11T23:12:15.105Z,2.20
2023-02-11T23:17:36.818Z,2.05
2023-02-11T23:22:58.523Z,2.58
2023-02-11T23:28:20.344Z,1.92
2023-02-11T23:33:42.138Z,1.85
2023-02-11T23:39:04.768Z,1.90
2023-02-11T23:44:27.362Z,1.80
2023-02-11T23:49:49.044Z,1.85
2023-02-11T23:55:11.506Z,1.73
